Main page
METAR-TAF:

METAR-TAF

Airports :

Bahrain International Airport

Bahrain, Bahrain

latitude: 26-16N, longitude: 050-39E, elevation: 2 m

Current weather observation

The report was made 36 minutes ago, at 05:30 UTC
Wind 2 kt from variable directions
Temperature 25°C
Humidity 57%
Pressure 1021 hPa
Visibility 10 km or more
no clouds below 1500 m and no cumulonimbus

METAR: OBBI 060530Z VRB02KT CAVOK 25/16 Q1021 NOSIG

Time: 09:06 (06:06 UTC)

Forecast

The report was made 1 hour and 6 minutes ago, at 05:00 UTC
Forecast valid from 06 at 06 UTC to 07 at 12 UTC
Wind 5 kt from variable directions
Visibility 10 km or more
no clouds below 1500 m and no cumulonimbus
Becoming
from 06 at 13 UTC to 06 at 15 UTC
Wind 10 kt from the East

TAF: OBBI 060500Z 0606/0712 VRB05KT CAVOK BECMG 0613/0615 09010KT

Weather observations and forecasts of more than 4000 airports (METAR and TAF reports).

The available stations are represented by yellow and red dots on the map.

Hover mouse over dot to see the name of the station.

Then click to see weather observations and forecasts.

To change the map : click on the green buttons with a black cross to zoom in, on the green button with a dash to zoom out, or on the green arrows for adjacent maps.


METAR-TAF: